createdAt,value
2017-09-09T00:00:58.231Z,7.00
2017-09-09T00:03:25.998Z,7.73
2017-09-09T00:05:53.518Z,7.83
2017-09-09T00:08:21.135Z,7.97
2017-09-09T00:10:48.640Z,7.67
2017-09-09T00:13:16.174Z,8.00
2017-09-09T00:15:43.712Z,7.70
2017-09-09T00:18:11.214Z,7.70
2017-09-09T00:20:39.034Z,7.50
2017-09-09T00:23:06.683Z,8.00
2017-09-09T00:25:34.251Z,7.77
2017-09-09T00:28:01.950Z,8.30
2017-09-09T00:30:29.522Z,8.57
2017-09-09T00:32:57.263Z,6.77
2017-09-09T00:35:24.772Z,8.10
2017-09-09T00:37:52.326Z,8.50
2017-09-09T00:40:20.085Z,8.07
2017-09-09T00:42:47.641Z,8.07
2017-09-09T00:45:15.202Z,7.87
2017-09-09T00:47:42.722Z,8.23
2017-09-09T00:50:10.264Z,7.53
2017-09-09T00:52:37.831Z,6.97
2017-09-09T00:55:05.413Z,8.00
2017-09-09T00:57:32.973Z,7.20
2017-09-09T01:00:00.509Z,8.20
2017-09-09T01:02:28.052Z,9.03
2017-09-09T01:04:57.232Z,8.10
2017-09-09T01:07:24.850Z,8.47
2017-09-09T01:09:52.433Z,8.17
2017-09-09T01:12:19.981Z,9.67
2017-09-09T01:14:47.815Z,9.73
2017-09-09T01:17:15.418Z,8.50
2017-09-09T01:19:42.984Z,8.70
2017-09-09T01:22:10.554Z,9.33
2017-09-09T01:24:38.174Z,8.53
2017-09-09T01:27:05.725Z,9.00
2017-09-09T01:29:33.286Z,9.90
2017-09-09T01:32:00.888Z,9.80
2017-09-09T01:34:28.468Z,10.00
2017-09-09T01:36:56.063Z,9.50
2017-09-09T01:39:23.617Z,9.53
2017-09-09T01:41:51.130Z,8.97
2017-09-09T01:44:18.638Z,9.40
2017-09-09T01:46:46.219Z,9.70
2017-09-09T01:49:13.777Z,9.43
2017-09-09T01:51:41.311Z,11.50
2017-09-09T01:54:09.097Z,9.77
2017-09-09T01:56:37.533Z,9.73
2017-09-09T01:59:05.062Z,9.63
2017-09-09T02:01:32.621Z,10.03
2017-09-09T02:04:00.160Z,9.53
2017-09-09T02:06:27.719Z,8.20
2017-09-09T02:08:55.354Z,9.43
2017-09-09T02:11:22.875Z,9.90
2017-09-09T02:13:50.409Z,10.50
2017-09-09T02:16:18.020Z,9.20
2017-09-09T02:18:45.585Z,10.83
2017-09-09T02:21:13.162Z,9.63
2017-09-09T02:23:40.737Z,9.90
2017-09-09T02:26:08.534Z,9.77
2017-09-09T02:28:36.051Z,9.93
2017-09-09T02:31:03.659Z,9.53
2017-09-09T02:33:31.185Z,11.17
2017-09-09T02:35:58.743Z,10.33
2017-09-09T02:38:26.349Z,10.83
2017-09-09T02:40:53.909Z,10.77
2017-09-09T02:43:21.434Z,9.90
2017-09-09T02:45:49.017Z,10.97
2017-09-09T02:48:16.529Z,11.30
2017-09-09T02:50:44.061Z,12.17
2017-09-09T02:53:11.625Z,10.07
2017-09-09T02:55:39.162Z,10.70
2017-09-09T02:58:06.693Z,10.53
2017-09-09T03:00:34.257Z,11.70
2017-09-09T03:03:01.863Z,11.93
2017-09-09T03:05:29.397Z,10.33
2017-09-09T03:07:56.958Z,11.40
2017-09-09T03:10:24.486Z,11.33
2017-09-09T03:12:52.225Z,11.43
2017-09-09T03:15:19.799Z,10.70
2017-09-09T03:17:47.546Z,10.20
2017-09-09T03:20:15.064Z,11.33
2017-09-09T03:22:42.616Z,9.87
2017-09-09T03:25:10.174Z,10.67
2017-09-09T03:27:37.702Z,10.80
2017-09-09T03:30:06.617Z,10.37
2017-09-09T03:32:34.272Z,10.47
2017-09-09T03:35:02.824Z,10.47
2017-09-09T03:37:30.441Z,10.10
2017-09-09T03:39:57.954Z,9.47
2017-09-09T03:42:25.480Z,11.30
2017-09-09T03:44:53.025Z,11.47
2017-09-09T03:47:20.785Z,10.30
2017-09-09T03:49:48.301Z,11.23
2017-09-09T03:52:15.863Z,10.50
2017-09-09T03:54:43.984Z,9.60
2017-09-09T03:57:11.517Z,11.90
2017-09-09T03:59:39.117Z,10.93
2017-09-09T04:02:06.699Z,11.83
2017-09-09T04:04:34.233Z,11.00
2017-09-09T04:07:01.754Z,10.07
2017-09-09T04:09:29.528Z,10.83
2017-09-09T04:11:57.057Z,11.90
2017-09-09T04:14:24.597Z,11.30
2017-09-09T04:16:52.151Z,11.00
2017-09-09T04:19:19.936Z,11.77
2017-09-09T04:21:47.469Z,12.50
2017-09-09T04:24:15.395Z,12.60
2017-09-09T04:26:42.926Z,12.50
2017-09-09T04:29:10.465Z,12.93
2017-09-09T04:31:38.069Z,12.80
2017-09-09T04:34:05.630Z,11.30
2017-09-09T04:36:33.199Z,11.70
2017-09-09T04:39:00.810Z,11.10
2017-09-09T04:41:28.378Z,11.00
2017-09-09T04:43:56.136Z,11.97
2017-09-09T04:46:23.713Z,9.53
2017-09-09T04:48:51.235Z,10.03
2017-09-09T04:51:18.758Z,11.40
2017-09-09T04:53:46.290Z,9.43
2017-09-09T04:56:13.869Z,9.77
2017-09-09T04:58:41.362Z,9.37
2017-09-09T05:01:08.886Z,9.50
2017-09-09T05:03:36.370Z,10.23
2017-09-09T05:06:03.862Z,9.60
2017-09-09T05:08:31.615Z,7.63
2017-09-09T05:10:59.102Z,6.43
2017-09-09T05:13:26.650Z,6.20
2017-09-09T05:15:54.383Z,7.63
2017-09-09T05:18:21.858Z,7.10
2017-09-09T05:20:49.345Z,7.00
2017-09-09T05:23:16.882Z,6.50
2017-09-09T05:25:44.389Z,6.77
2017-09-09T05:28:11.884Z,8.03
2017-09-09T05:30:39.443Z,8.10
2017-09-09T05:33:07.304Z,7.40
2017-09-09T05:35:34.823Z,8.73
2017-09-09T05:38:02.390Z,8.37
2017-09-09T05:40:29.890Z,8.50
2017-09-09T05:42:57.382Z,9.37
2017-09-09T05:45:24.906Z,10.47
2017-09-09T05:47:52.414Z,11.53
2017-09-09T05:50:19.919Z,10.53
2017-09-09T05:52:47.478Z,10.33
2017-09-09T05:55:14.980Z,10.43
2017-09-09T05:57:42.514Z,10.57
2017-09-09T06:00:10.183Z,10.03
2017-09-09T06:02:37.676Z,8.40
2017-09-09T06:05:05.492Z,11.10
2017-09-09T06:07:33.035Z,7.90
2017-09-09T06:10:00.527Z,9.07
2017-09-09T06:12:28.250Z,9.00
2017-09-09T06:14:56.058Z,10.07
2017-09-09T06:17:23.596Z,9.00
2017-09-09T06:19:51.138Z,7.23
2017-09-09T06:22:18.681Z,6.43
2017-09-09T06:24:46.194Z,5.93
2017-09-09T06:27:13.686Z,6.20
2017-09-09T06:29:41.239Z,6.40
2017-09-09T06:32:08.770Z,6.50
2017-09-09T06:34:36.275Z,6.20
2017-09-09T06:37:03.757Z,6.57
2017-09-09T06:39:31.333Z,7.80
2017-09-09T06:41:59.253Z,7.07
2017-09-09T06:44:26.966Z,6.83
2017-09-09T06:46:54.504Z,6.80
2017-09-09T06:49:21.995Z,6.00
2017-09-09T06:51:49.495Z,6.30
2017-09-09T06:54:17.039Z,6.70
2017-09-09T06:56:44.746Z,6.20
2017-09-09T06:59:12.227Z,7.00
2017-09-09T07:01:40.119Z,6.37
2017-09-09T07:04:07.871Z,5.40
2017-09-09T07:06:35.384Z,6.50
2017-09-09T07:09:02.962Z,7.07
2017-09-09T07:11:30.485Z,6.30
2017-09-09T07:13:58.021Z,5.93
2017-09-09T07:16:25.613Z,5.97
2017-09-09T07:18:53.155Z,6.43
2017-09-09T07:21:20.679Z,7.07
2017-09-09T07:23:48.304Z,5.50
2017-09-09T07:26:15.851Z,5.40
2017-09-09T07:28:43.409Z,5.50
2017-09-09T07:31:10.990Z,5.40
2017-09-09T07:33:38.510Z,5.50
2017-09-09T07:36:06.049Z,6.00
2017-09-09T07:38:33.655Z,5.10
2017-09-09T07:41:01.186Z,6.47
2017-09-09T07:43:28.725Z,6.47
2017-09-09T07:45:56.298Z,5.63
2017-09-09T07:48:23.834Z,5.90
2017-09-09T07:50:51.356Z,5.80
2017-09-09T07:53:18.928Z,5.90
2017-09-09T07:55:46.461Z,5.93
2017-09-09T07:58:13.995Z,5.40
2017-09-09T08:00:41.587Z,6.70
2017-09-09T08:03:09.122Z,5.90
2017-09-09T08:05:36.812Z,5.80
2017-09-09T08:08:04.419Z,5.57
2017-09-09T08:10:32.206Z,5.23
2017-09-09T08:12:59.762Z,5.83
2017-09-09T08:15:27.344Z,5.30
2017-09-09T08:17:55.086Z,5.70
2017-09-09T08:20:22.608Z,6.70
2017-09-09T08:22:50.243Z,5.90
2017-09-09T08:25:17.830Z,5.33
2017-09-09T08:27:45.350Z,5.83
2017-09-09T08:30:13.002Z,5.80
2017-09-09T08:32:40.525Z,5.20
2017-09-09T08:35:08.067Z,5.93
2017-09-09T08:37:35.789Z,5.20
2017-09-09T08:40:03.322Z,4.80
2017-09-09T08:42:30.858Z,6.30
2017-09-09T08:44:58.417Z,5.50
2017-09-09T08:47:25.946Z,5.50
2017-09-09T08:49:53.508Z,5.70
2017-09-09T08:52:21.098Z,5.97
2017-09-09T08:54:48.847Z,5.03
2017-09-09T08:57:16.370Z,4.60
2017-09-09T08:59:43.954Z,5.10
2017-09-09T09:02:11.512Z,5.27
2017-09-09T09:04:39.062Z,5.70
2017-09-09T09:07:06.571Z,5.40
2017-09-09T09:09:34.108Z,4.57
2017-09-09T09:12:01.618Z,4.70
2017-09-09T09:14:29.147Z,4.00
2017-09-09T09:16:56.707Z,3.27
2017-09-09T09:19:24.460Z,3.33
2017-09-09T09:21:52.089Z,4.07
2017-09-09T09:24:19.795Z,3.77
2017-09-09T09:26:47.427Z,3.70
2017-09-09T09:29:14.950Z,4.63
2017-09-09T09:31:42.484Z,3.20
2017-09-09T09:34:10.461Z,4.00
2017-09-09T09:36:37.983Z,3.00
2017-09-09T09:39:05.551Z,3.60
2017-09-09T09:41:33.068Z,2.90
2017-09-09T09:44:00.592Z,3.30
2017-09-09T09:46:28.135Z,4.17
2017-09-09T09:48:55.908Z,3.10
2017-09-09T09:51:23.429Z,4.40
2017-09-09T09:53:51.008Z,3.97
2017-09-09T09:56:18.573Z,3.37
2017-09-09T09:58:46.189Z,3.83
2017-09-09T10:01:13.788Z,3.43
2017-09-09T10:03:41.513Z,2.77
2017-09-09T10:06:09.033Z,3.23
2017-09-09T10:08:36.603Z,3.40
2017-09-09T10:11:05.768Z,3.10
2017-09-09T10:13:33.390Z,3.27
2017-09-09T10:16:00.977Z,3.20
2017-09-09T10:18:28.513Z,3.20
2017-09-09T10:20:56.067Z,3.43
2017-09-09T10:23:23.648Z,4.03
2017-09-09T10:25:51.804Z,3.77
2017-09-09T10:28:19.356Z,3.53
2017-09-09T10:30:47.146Z,3.97
2017-09-09T10:33:14.706Z,3.33
2017-09-09T10:35:42.205Z,3.50
2017-09-09T10:38:09.788Z,7.23
2017-09-09T10:40:37.316Z,3.60
2017-09-09T10:43:04.846Z,3.67
2017-09-09T10:45:32.418Z,3.33
2017-09-09T10:47:59.957Z,3.87
2017-09-09T10:50:27.698Z,4.70
2017-09-09T10:52:55.302Z,3.57
2017-09-09T10:55:22.825Z,3.30
2017-09-09T10:57:50.376Z,3.33
2017-09-09T11:00:18.039Z,3.77
2017-09-09T11:02:45.562Z,3.90
2017-09-09T11:05:13.111Z,2.90
2017-09-09T11:07:40.661Z,4.33
2017-09-09T11:10:08.226Z,3.60
2017-09-09T11:12:35.767Z,3.70
2017-09-09T11:15:03.350Z,3.70
2017-09-09T11:17:30.910Z,3.60
2017-09-09T11:19:58.409Z,3.73
2017-09-09T11:22:26.017Z,3.07
2017-09-09T11:24:53.547Z,3.20
2017-09-09T11:27:21.304Z,3.27
2017-09-09T11:29:49.085Z,2.77
2017-09-09T11:32:16.667Z,3.27
2017-09-09T11:34:44.200Z,2.50
2017-09-09T11:37:11.770Z,3.00
2017-09-09T11:39:39.345Z,3.63
2017-09-09T11:42:07.122Z,3.10
2017-09-09T11:44:35.478Z,3.10
2017-09-09T11:47:03.097Z,3.63
2017-09-09T11:49:30.689Z,3.60
2017-09-09T11:51:58.207Z,3.60
2017-09-09T11:54:25.783Z,3.30
2017-09-09T11:56:53.328Z,3.33
2017-09-09T11:59:20.883Z,3.07
2017-09-09T12:01:48.442Z,3.30
2017-09-09T12:04:16.181Z,2.87
2017-09-09T12:06:43.924Z,3.47
2017-09-09T12:09:11.529Z,3.47
2017-09-09T12:11:40.989Z,4.10
2017-09-09T12:14:08.568Z,3.37
2017-09-09T12:16:36.465Z,3.30
2017-09-09T12:19:04.033Z,3.13
2017-09-09T12:21:31.617Z,2.70
2017-09-09T12:23:59.169Z,3.00
2017-09-09T12:26:26.730Z,3.30
2017-09-09T12:28:54.262Z,3.90
2017-09-09T12:31:21.818Z,3.97
2017-09-09T12:33:49.366Z,3.20
2017-09-09T12:36:16.917Z,4.10
2017-09-09T12:38:44.469Z,4.30
2017-09-09T12:41:11.987Z,3.63
2017-09-09T12:43:39.756Z,3.90
2017-09-09T12:46:07.348Z,4.23
2017-09-09T12:48:34.861Z,3.60
2017-09-09T12:51:02.616Z,4.47
2017-09-09T12:53:30.297Z,4.00
2017-09-09T12:55:57.839Z,3.50
2017-09-09T12:58:25.413Z,3.20
2017-09-09T13:00:53.128Z,4.40
2017-09-09T13:03:20.784Z,3.33
2017-09-09T13:05:48.609Z,3.93
2017-09-09T13:08:16.206Z,3.80
2017-09-09T13:10:43.717Z,3.70
2017-09-09T13:13:11.467Z,3.23
2017-09-09T13:15:39.022Z,4.17
2017-09-09T13:18:06.582Z,3.13
2017-09-09T13:20:34.138Z,3.67
2017-09-09T13:23:01.698Z,4.10
2017-09-09T13:25:29.443Z,3.50
2017-09-09T13:27:57.001Z,3.23
2017-09-09T13:30:24.600Z,2.67
2017-09-09T13:32:52.130Z,2.50
2017-09-09T13:35:19.637Z,2.50
2017-09-09T13:37:47.234Z,2.93
2017-09-09T13:40:14.769Z,3.00
2017-09-09T13:42:42.416Z,3.20
2017-09-09T13:45:09.980Z,3.53
2017-09-09T13:47:37.497Z,3.30
2017-09-09T13:50:05.038Z,3.10
2017-09-09T13:52:32.649Z,3.33
2017-09-09T13:55:00.995Z,3.37
2017-09-09T13:57:28.568Z,3.20
2017-09-09T13:59:56.420Z,3.17
2017-09-09T14:02:25.555Z,3.07
2017-09-09T14:04:54.824Z,3.70
2017-09-09T14:07:22.369Z,3.10
2017-09-09T14:09:49.914Z,3.17
2017-09-09T14:12:17.497Z,3.20
2017-09-09T14:14:45.098Z,3.00
2017-09-09T14:17:12.665Z,2.27
2017-09-09T14:19:40.251Z,2.83
2017-09-09T14:22:07.805Z,2.50
2017-09-09T14:24:35.365Z,2.03
2017-09-09T14:27:02.914Z,3.17
2017-09-09T14:29:30.466Z,2.10
2017-09-09T14:31:58.026Z,2.33
2017-09-09T14:34:25.645Z,2.67
2017-09-09T14:36:53.348Z,2.20
2017-09-09T14:39:20.947Z,2.60
2017-09-09T14:41:48.474Z,2.97
2017-09-09T14:44:16.037Z,2.53
2017-09-09T14:46:43.610Z,3.07
2017-09-09T14:49:11.201Z,2.60
2017-09-09T14:51:38.860Z,2.90
2017-09-09T14:54:06.455Z,2.97
2017-09-09T14:56:34.114Z,3.87
2017-09-09T14:59:01.855Z,4.00
2017-09-09T15:01:29.426Z,3.80
2017-09-09T15:03:57.276Z,3.90
2017-09-09T15:06:24.864Z,4.10
2017-09-09T15:08:52.443Z,2.73
2017-09-09T15:11:19.949Z,3.93
2017-09-09T15:13:47.488Z,2.87
2017-09-09T15:16:15.075Z,3.23
2017-09-09T15:18:42.595Z,5.30
2017-09-09T15:21:10.349Z,4.13
2017-09-09T15:23:37.926Z,3.87
2017-09-09T15:26:05.448Z,4.83
2017-09-09T15:28:32.991Z,4.07
2017-09-09T15:31:00.889Z,3.80
2017-09-09T15:33:28.436Z,3.57
2017-09-09T15:35:55.985Z,3.37
2017-09-09T15:38:23.580Z,3.73
2017-09-09T15:40:51.137Z,4.17
2017-09-09T15:43:18.697Z,5.33
2017-09-09T15:45:46.286Z,7.60
2017-09-09T15:48:13.821Z,6.40
2017-09-09T15:50:41.352Z,5.90
2017-09-09T15:53:08.927Z,5.90
2017-09-09T15:55:36.467Z,7.87
2017-09-09T15:58:04.106Z,6.90
2017-09-09T16:00:31.738Z,6.03
2017-09-09T16:02:59.536Z,7.90
2017-09-09T16:05:27.171Z,6.23
2017-09-09T16:07:54.805Z,5.00
2017-09-09T16:10:22.376Z,4.70
2017-09-09T16:12:50.082Z,5.80
2017-09-09T16:15:17.701Z,4.83
2017-09-09T16:17:45.296Z,5.33
2017-09-09T16:20:12.845Z,4.67
2017-09-09T16:22:40.422Z,6.97
2017-09-09T16:25:07.935Z,6.33
2017-09-09T16:27:35.506Z,3.70
2017-09-09T16:30:06.507Z,3.50
2017-09-09T16:32:34.246Z,3.03
2017-09-09T16:35:01.785Z,2.83
2017-09-09T16:37:29.388Z,3.40
2017-09-09T16:39:56.967Z,3.33
2017-09-09T16:42:24.474Z,2.90
2017-09-09T16:44:52.035Z,3.20
2017-09-09T16:47:19.547Z,3.20
2017-09-09T16:49:48.009Z,4.30
2017-09-09T16:52:15.588Z,3.43
2017-09-09T16:54:43.106Z,4.03
2017-09-09T16:57:10.614Z,3.60
2017-09-09T16:59:38.195Z,4.50
2017-09-09T17:02:05.744Z,3.80
2017-09-09T17:04:33.263Z,4.07
2017-09-09T17:07:01.020Z,4.27
2017-09-09T17:09:28.581Z,4.00
2017-09-09T17:11:56.350Z,3.67
2017-09-09T17:14:24.606Z,3.30
2017-09-09T17:16:52.178Z,4.40
2017-09-09T17:19:19.703Z,3.43
2017-09-09T17:21:48.697Z,3.87
2017-09-09T17:24:16.358Z,3.63
2017-09-09T17:26:43.915Z,3.87
2017-09-09T17:29:11.452Z,4.27
2017-09-09T17:31:39.042Z,3.70
2017-09-09T17:34:06.563Z,4.13
2017-09-09T17:36:34.077Z,4.47
2017-09-09T17:39:01.636Z,5.30
2017-09-09T17:41:29.172Z,4.67
2017-09-09T17:43:56.783Z,4.50
2017-09-09T17:46:24.351Z,4.23
2017-09-09T17:48:51.860Z,4.97
2017-09-09T17:51:19.620Z,5.03
2017-09-09T17:53:47.165Z,4.70
2017-09-09T17:56:14.664Z,4.50
2017-09-09T17:58:42.226Z,4.67
2017-09-09T18:01:09.895Z,4.47
2017-09-09T18:03:37.414Z,4.33
2017-09-09T18:06:04.937Z,4.73
2017-09-09T18:08:32.485Z,4.70
2017-09-09T18:11:00.015Z,4.77
2017-09-09T18:13:27.559Z,4.73
2017-09-09T18:15:55.127Z,5.43
2017-09-09T18:18:22.885Z,4.90
2017-09-09T18:20:50.634Z,5.33
2017-09-09T18:23:18.177Z,5.13
2017-09-09T18:25:49.861Z,5.30
2017-09-09T18:28:18.810Z,5.60
2017-09-09T18:30:46.382Z,6.00
2017-09-09T18:33:13.947Z,5.80
2017-09-09T18:35:48.646Z,6.03
2017-09-09T18:38:17.359Z,4.63
2017-09-09T18:40:44.869Z,5.73
2017-09-09T18:43:12.413Z,8.13
2017-09-09T18:45:40.003Z,6.10
2017-09-09T18:48:07.530Z,4.80
2017-09-09T18:50:35.269Z,6.77
2017-09-09T18:53:02.878Z,6.50
2017-09-09T18:55:30.396Z,5.63
2017-09-09T18:57:57.986Z,6.83
2017-09-09T19:00:25.940Z,6.47
2017-09-09T19:02:53.561Z,7.17
2017-09-09T19:05:21.190Z,7.80
2017-09-09T19:07:48.761Z,7.43
2017-09-09T19:10:16.780Z,6.77
2017-09-09T19:12:44.299Z,6.40
2017-09-09T19:15:11.903Z,7.00
2017-09-09T19:17:39.690Z,7.30
2017-09-09T19:20:07.229Z,6.40
2017-09-09T19:22:34.915Z,4.70
2017-09-09T19:25:02.493Z,5.50
2017-09-09T19:27:30.047Z,5.60
2017-09-09T19:29:57.645Z,5.80
2017-09-09T19:32:25.231Z,5.30
2017-09-09T19:34:52.766Z,5.27
2017-09-09T19:37:20.367Z,5.50
2017-09-09T19:39:48.023Z,7.30
2017-09-09T19:42:15.786Z,6.47
2017-09-09T19:44:43.354Z,5.80
2017-09-09T19:47:10.948Z,5.50
2017-09-09T19:49:38.476Z,6.30
2017-09-09T19:52:06.259Z,5.30
2017-09-09T19:54:33.891Z,4.80
2017-09-09T19:57:01.446Z,5.40
2017-09-09T19:59:29.207Z,5.57
2017-09-09T20:01:56.819Z,5.57
2017-09-09T20:04:24.427Z,5.20
2017-09-09T20:06:52.200Z,5.07
2017-09-09T20:09:19.947Z,4.47
2017-09-09T20:11:47.650Z,5.30
2017-09-09T20:14:15.265Z,5.37
2017-09-09T20:16:42.853Z,4.50
2017-09-09T20:19:10.414Z,5.70
2017-09-09T20:21:37.961Z,5.90
2017-09-09T20:24:05.662Z,5.43
2017-09-09T20:26:33.485Z,5.80
2017-09-09T20:29:01.081Z,5.67
2017-09-09T20:31:28.717Z,5.33
2017-09-09T20:33:56.266Z,5.37
2017-09-09T20:36:23.831Z,13.37
2017-09-09T20:38:51.467Z,15.33
2017-09-09T20:41:19.064Z,6.63
2017-09-09T20:43:46.644Z,6.37
2017-09-09T20:46:14.298Z,6.87
2017-09-09T20:48:41.910Z,6.50
2017-09-09T20:51:09.516Z,5.20
2017-09-09T20:53:37.129Z,6.70
2017-09-09T20:56:04.975Z,6.77
2017-09-09T20:58:32.566Z,6.90
2017-09-09T21:01:00.397Z,6.50
2017-09-09T21:03:27.990Z,7.37
2017-09-09T21:05:56.176Z,6.93
2017-09-09T21:08:23.792Z,6.93
2017-09-09T21:10:51.321Z,6.30
2017-09-09T21:13:20.275Z,7.80
2017-09-09T21:15:47.860Z,5.47
2017-09-09T21:18:15.619Z,6.37
2017-09-09T21:20:43.419Z,6.50
2017-09-09T21:23:11.054Z,6.90
2017-09-09T21:25:38.686Z,5.40
2017-09-09T21:28:06.298Z,6.30
2017-09-09T21:30:33.894Z,6.00
2017-09-09T21:33:01.688Z,6.13
2017-09-09T21:35:29.734Z,7.03
2017-09-09T21:37:58.087Z,6.13
2017-09-09T21:40:26.055Z,6.63
2017-09-09T21:42:54.568Z,4.93
2017-09-09T21:45:22.752Z,5.50
2017-09-09T21:47:50.593Z,5.77
2017-09-09T21:50:18.164Z,6.70
2017-09-09T21:52:45.761Z,5.60
2017-09-09T21:55:13.386Z,5.13
2017-09-09T21:57:41.176Z,6.27
2017-09-09T22:00:08.991Z,6.20
2017-09-09T22:02:36.810Z,6.60
2017-09-09T22:05:04.622Z,7.03
2017-09-09T22:07:32.215Z,6.87
2017-09-09T22:09:59.726Z,6.57
2017-09-09T22:12:27.358Z,5.70
2017-09-09T22:14:54.972Z,6.20
2017-09-09T22:17:22.549Z,5.30
2017-09-09T22:19:50.119Z,6.40
2017-09-09T22:22:17.705Z,5.50
2017-09-09T22:24:45.245Z,7.47
2017-09-09T22:27:13.039Z,6.57
2017-09-09T22:29:40.633Z,6.87
2017-09-09T22:32:08.256Z,7.17
2017-09-09T22:34:35.786Z,6.60
2017-09-09T22:37:03.369Z,6.20
2017-09-09T22:39:30.939Z,6.63
2017-09-09T22:41:58.448Z,6.50
2017-09-09T22:44:26.015Z,6.57
2017-09-09T22:46:53.640Z,6.67
2017-09-09T22:49:21.228Z,6.63
2017-09-09T22:51:48.789Z,6.93
2017-09-09T22:54:16.387Z,7.50
2017-09-09T22:56:43.924Z,6.73
2017-09-09T22:59:11.482Z,6.53
2017-09-09T23:01:39.085Z,7.30
2017-09-09T23:04:06.665Z,8.10
2017-09-09T23:06:34.485Z,7.20
2017-09-09T23:09:02.077Z,7.47
2017-09-09T23:11:29.667Z,7.33
2017-09-09T23:13:57.277Z,6.97
2017-09-09T23:16:24.904Z,6.87
2017-09-09T23:18:52.453Z,7.73
2017-09-09T23:21:19.997Z,7.50
2017-09-09T23:23:47.620Z,7.23
2017-09-09T23:26:15.155Z,7.80
2017-09-09T23:28:42.677Z,6.67
2017-09-09T23:31:10.256Z,6.87
2017-09-09T23:33:37.870Z,6.30
2017-09-09T23:36:05.400Z,7.00
2017-09-09T23:38:32.996Z,7.20
2017-09-09T23:41:00.578Z,8.67
2017-09-09T23:43:28.186Z,9.97
2017-09-09T23:45:55.768Z,11.20
2017-09-09T23:48:23.311Z,9.93
2017-09-09T23:50:50.838Z,9.87
2017-09-09T23:53:18.392Z,9.03
2017-09-09T23:55:45.917Z,10.30
2017-09-09T23:58:13.422Z,9.10
